Time;durP1;ratioP1;P1;durP2;ratioP2;P2;SDS_P1;SDS_P2;PMS_P1;PMS_P2;Temp;Humidity;BMP_temperature;BMP_pressure;BME280_temperature;BME280_humidity;BME280_pressure;Samples;Min_cycle;Max_cycle;Signal;HPM_P1;HPM_P2
2023/06/16 00:00:43;;;;;;;3.20;2.28;;;;;;;30.80;29.77;101775.28;5006216;28;97147;-72
2023/06/16 00:03:09;;;;;;;1.92;1.63;;;;;;;30.80;29.27;101772.53;5006689;28;96731;-72
2023/06/16 00:05:36;;;;;;;2.20;2.00;;;;;;;30.80;29.70;101778.06;5006670;28;96807;-72
2023/06/16 00:08:03;;;;;;;1.95;1.75;;;;;;;30.81;29.45;101777.00;5006454;28;96910;-72
2023/06/16 00:10:30;;;;;;;2.92;1.98;;;;;;;30.81;29.82;101778.91;5005562;28;96646;-71
2023/06/16 00:12:57;;;;;;;3.22;1.90;;;;;;;30.81;29.74;101776.16;5006490;28;97104;-72
2023/06/16 00:15:24;;;;;;;3.55;2.00;;;;;;;30.81;29.48;101776.16;5006287;28;97887;-72
2023/06/16 00:17:50;;;;;;;2.50;2.05;;;;;;;30.80;29.52;101778.06;5005394;28;97545;-72
2023/06/16 00:20:20;;;;;;;2.65;2.00;;;;;;;30.80;29.68;101766.97;5004822;28;96701;-72
2023/06/16 00:22:50;;;;;;;2.67;1.95;;;;;;;30.80;29.59;101774.44;5006163;28;97248;-72
2023/06/16 00:25:18;;;;;;;2.00;1.80;;;;;;;30.79;29.57;101773.59;5008994;28;96938;-72
2023/06/16 00:27:46;;;;;;;1.98;1.80;;;;;;;30.79;29.60;101765.28;5009215;28;97694;-72
2023/06/16 00:30:13;;;;;;;2.58;1.92;;;;;;;30.79;29.53;101770.81;5008772;28;96602;-72
2023/06/16 00:32:40;;;;;;;2.65;1.80;;;;;;;30.78;29.72;101763.56;5009603;28;96967;-74
2023/06/16 00:35:07;;;;;;;2.25;2.05;;;;;;;30.79;29.91;101761.66;5009345;28;96848;-72
2023/06/16 00:37:35;;;;;;;2.17;1.90;;;;;;;30.79;29.50;101761.66;5009202;28;97437;-71
2023/06/16 00:40:03;;;;;;;3.25;2.10;;;;;;;30.79;29.55;101768.03;5007313;28;99268;-72
2023/06/16 00:42:30;;;;;;;2.13;1.90;;;;;;;30.78;29.50;101763.56;5007855;28;96932;-72
2023/06/16 00:44:58;;;;;;;3.30;2.13;;;;;;;30.79;29.53;101756.09;5007307;28;97648;-72
2023/06/16 00:47:25;;;;;;;2.83;2.33;;;;;;;30.78;29.68;101762.72;5008113;28;100308;-72
2023/06/16 00:49:52;;;;;;;2.85;1.90;;;;;;;30.78;29.50;101758.03;5007442;28;97477;-72
2023/06/16 00:52:22;;;;;;;3.20;1.80;;;;;;;30.79;29.60;101765.28;5007039;28;97354;-72
2023/06/16 00:54:50;;;;;;;1.90;1.80;;;;;;;30.78;29.76;101762.72;5006995;28;96723;-71
2023/06/16 00:57:17;;;;;;;2.10;1.90;;;;;;;30.77;29.49;101761.00;5008834;28;96787;-71
2023/06/16 00:59:44;;;;;;;2.35;1.77;;;;;;;30.78;29.46;101754.41;4997892;28;97740;-72
2023/06/16 01:02:10;;;;;;;2.40;1.90;;;;;;;30.78;29.60;101755.25;5007790;28;96817;-72
2023/06/16 01:04:37;;;;;;;1.95;1.75;;;;;;;30.78;29.74;101749.69;5009157;28;96698;-72
2023/06/16 01:07:28;;;;;;;2.78;2.10;;;;;;;30.78;29.64;101754.41;5008050;28;99595;-71
2023/06/16 01:10:05;;;;;;;2.35;1.92;;;;;;;30.76;29.72;101757.38;5007772;28;97799;-72
2023/06/16 01:12:41;;;;;;;1.95;1.70;;;;;;;30.76;29.78;101751.84;5008928;28;96918;-71
2023/06/16 01:15:13;;;;;;;2.38;1.80;;;;;;;30.75;29.45;101750.16;4996804;28;96640;-71
2023/06/16 01:17:45;;;;;;;1.83;1.60;;;;;;;30.76;29.61;101751.00;4995358;28;97141;-72
2023/06/16 01:20:48;;;;;;;2.28;1.70;;;;;;;30.76;29.70;101746.31;5006634;28;99722;-72
2023/06/16 01:23:26;;;;;;;2.28;2.00;;;;;;;30.75;29.66;101764.00;5008858;28;96861;-72
2023/06/16 01:25:58;;;;;;;3.83;1.92;;;;;;;30.74;29.67;101745.66;4991258;28;97710;-72
2023/06/16 01:28:29;;;;;;;1.80;1.67;;;;;;;30.74;29.71;101753.13;5007591;28;98783;-72
2023/06/16 01:30:58;;;;;;;1.98;1.70;;;;;;;30.75;29.60;101755.69;5008685;28;97266;-72
2023/06/16 01:33:26;;;;;;;1.77;1.60;;;;;;;30.74;29.71;101751.22;5008241;28;96663;-72
2023/06/16 01:35:55;;;;;;;2.28;1.95;;;;;;;30.75;29.48;101754.84;5006039;28;96876;-72
2023/06/16 01:38:23;;;;;;;1.77;1.67;;;;;;;30.74;29.59;101754.00;5008869;28;96936;-72
2023/06/16 01:40:51;;;;;;;2.03;1.83;;;;;;;30.75;29.69;101749.28;5008546;28;97404;-72
2023/06/16 01:43:20;;;;;;;2.72;1.83;;;;;;;30.73;29.68;101760.59;5008588;28;97195;-72
2023/06/16 01:45:49;;;;;;;2.08;1.80;;;;;;;30.73;29.76;101755.06;5009273;28;97026;-72
2023/06/16 01:48:17;;;;;;;1.90;1.70;;;;;;;30.73;29.59;101752.28;5006390;28;99816;-72
2023/06/16 01:50:44;;;;;;;2.30;2.00;;;;;;;30.74;29.83;101764.22;5006871;28;96914;-72
2023/06/16 01:53:10;;;;;;;2.20;1.90;;;;;;;30.73;29.67;101755.06;5007216;28;96929;-72
2023/06/16 01:55:37;;;;;;;2.20;1.63;;;;;;;30.74;29.58;101747.59;5006243;28;96814;-72
2023/06/16 01:58:05;;;;;;;2.38;1.70;;;;;;;30.73;29.77;101745.88;5006341;28;98169;-72
2023/06/16 02:00:36;;;;;;;3.63;1.98;;;;;;;30.74;29.60;101755.91;5007874;28;97404;-71
2023/06/16 02:03:10;;;;;;;1.88;1.73;;;;;;;30.73;29.53;101752.28;4990738;28;97291;-72
2023/06/16 02:05:40;;;;;;;;;;;;;;;30.66;29.58;101749.53;5008944;28;96810;-71
2023/06/16 02:08:09;;;;;;;2.13;1.70;;;;;;;30.66;29.88;101740.38;5006435;28;96875;-72
2023/06/16 02:10:36;;;;;;;2.33;1.77;;;;;;;30.68;29.71;101743.78;5007019;28;96872;-72
2023/06/16 02:13:04;;;;;;;2.13;1.92;;;;;;;30.70;29.50;101743.56;5008160;28;97062;-72
2023/06/16 02:15:32;;;;;;;2.30;2.10;;;;;;;30.69;29.99;101741.84;5008207;28;96793;-72
2023/06/16 02:17:58;;;;;;;2.25;1.77;;;;;;;30.69;29.88;101741.84;5007772;28;96913;-72
2023/06/16 02:20:26;;;;;;;2.25;1.83;;;;;;;30.69;29.69;101745.47;5006633;28;97716;-72
2023/06/16 02:22:53;;;;;;;2.25;1.77;;;;;;;30.70;29.78;101744.41;5005724;28;96831;-72
2023/06/16 02:25:21;;;;;;;3.50;2.15;;;;;;;30.70;29.72;101743.56;5008078;28;97167;-72
2023/06/16 02:27:48;;;;;;;1.67;1.42;;;;;;;30.70;29.65;101744.41;5004698;28;97689;-72
2023/06/16 02:30:15;;;;;;;2.25;1.75;;;;;;;30.69;29.57;101745.47;5007279;28;97452;-72
2023/06/16 02:32:43;;;;;;;1.85;1.63;;;;;;;30.70;29.49;101743.56;5006445;28;96641;-72
2023/06/16 02:35:22;;;;;;;2.28;1.95;;;;;;;30.68;29.79;101743.78;5005764;28;96840;-72
2023/06/16 02:37:52;;;;;;;1.98;1.75;;;;;;;30.68;29.86;101746.56;5007886;28;97670;-72
2023/06/16 02:40:19;;;;;;;2.72;1.90;;;;;;;30.67;29.62;101737.38;4994105;28;97456;-72
2023/06/16 02:42:47;;;;;;;2.20;1.67;;;;;;;30.69;29.84;101747.41;5006282;28;97067;-72
2023/06/16 02:45:14;;;;;;;1.90;1.63;;;;;;;30.67;29.91;101742.94;5006015;28;96854;-72
2023/06/16 02:47:43;;;;;;;2.10;1.60;;;;;;;30.67;30.02;101742.06;5004705;28;97470;-72
2023/06/16 02:50:10;;;;;;;2.10;1.90;;;;;;;30.66;29.56;101741.22;5005957;28;97434;-72
2023/06/16 02:52:41;;;;;;;2.63;1.70;;;;;;;30.66;29.85;101744.00;5006000;28;97089;-72
2023/06/16 02:55:09;;;;;;;1.70;1.60;;;;;;;30.66;29.67;101740.38;5005408;28;96855;-72
2023/06/16 02:57:42;;;;;;;2.55;1.80;;;;;;;30.66;29.83;101738.44;5005532;28;99459;-72
2023/06/16 03:00:11;;;;;;;1.88;1.70;;;;;;;30.65;29.62;101747.84;4989255;28;100700;-72
2023/06/16 03:02:57;;;;;;;3.42;2.00;;;;;;;30.65;29.63;101739.53;5001184;28;97061;-72
2023/06/16 03:05:27;;;;;;;2.00;1.55;;;;;;;30.65;29.86;101738.66;4989767;28;96948;-71
2023/06/16 03:07:55;;;;;;;2.53;1.80;;;;;;;30.64;29.62;101740.59;5006953;28;97363;-72
2023/06/16 03:10:23;;;;;;;1.98;1.73;;;;;;;30.64;29.89;101748.91;4989343;28;97653;-72
2023/06/16 03:13:13;;;;;;;2.15;1.65;;;;;;;30.63;29.80;101749.97;5005625;28;97723;-71
2023/06/16 03:15:39;;;;;;;2.67;1.80;;;;;;;30.64;29.86;101739.75;5004806;28;97154;-72
2023/06/16 03:18:06;;;;;;;3.20;1.92;;;;;;;30.64;29.90;101742.50;5005944;28;96775;-72
2023/06/16 03:20:34;;;;;;;2.00;1.73;;;;;;;30.64;29.59;101753.59;5004427;28;99049;-72
2023/06/16 03:23:13;;;;;;;2.40;1.70;;;;;;;30.63;29.82;101751.91;5005470;28;96773;-72
2023/06/16 03:25:40;;;;;;;1.80;1.70;;;;;;;30.62;30.04;101745.50;5002663;28;97123;-72
2023/06/16 03:28:07;;;;;;;2.13;1.70;;;;;;;30.62;29.81;101748.28;4989678;28;98098;-72
2023/06/16 03:30:35;;;;;;;2.30;1.77;;;;;;;30.62;29.68;101736.34;5005309;28;98581;-72
2023/06/16 03:33:06;;;;;;;2.00;1.70;;;;;;;30.62;29.92;101748.28;5005612;28;96801;-72
2023/06/16 03:35:36;;;;;;;1.70;1.60;;;;;;;30.61;29.91;101746.56;4989097;28;96931;-72
2023/06/16 03:38:06;;;;;;;1.65;1.50;;;;;;;30.62;29.68;101748.28;5004768;28;96865;-72
2023/06/16 03:40:37;;;;;;;1.70;1.60;;;;;;;30.61;29.68;101746.56;5005682;28;96701;-72
2023/06/16 03:43:04;;;;;;;2.17;1.98;;;;;;;30.61;29.59;101748.50;5007312;28;96652;-72
2023/06/16 03:45:31;;;;;;;2.65;1.67;;;;;;;30.60;29.85;101746.81;5005419;28;99215;-72
2023/06/16 03:47:58;;;;;;;1.92;1.65;;;;;;;30.60;29.64;101744.88;5005296;28;98884;-72
2023/06/16 03:50:25;;;;;;;2.45;1.70;;;;;;;30.60;29.71;101747.66;5004690;28;99863;-72
2023/06/16 03:52:52;;;;;;;3.90;2.08;;;;;;;30.60;29.88;101755.97;5005176;28;97241;-73
2023/06/16 03:55:39;;;;;;;2.28;1.80;;;;;;;30.59;30.03;101750.63;5004667;28;96991;-72
2023/06/16 03:58:07;;;;;;;1.77;1.65;;;;;;;30.59;29.83;101757.03;5006100;28;99959;-72
2023/06/16 04:00:34;;;;;;;2.60;1.70;;;;;;;30.59;29.88;101754.25;5009589;28;97339;-72
2023/06/16 04:03:02;;;;;;;2.53;2.10;;;;;;;30.60;29.91;101749.56;5008782;28;96712;-72
2023/06/16 04:05:29;;;;;;;2.00;1.73;;;;;;;30.60;29.74;101755.13;5009031;28;96718;-72
2023/06/16 04:07:59;;;;;;;1.80;1.63;;;;;;;30.59;29.77;101757.03;5008375;28;97951;-72
2023/06/16 04:10:25;;;;;;;1.80;1.52;;;;;;;30.59;30.05;101756.19;5008122;28;97623;-72
2023/06/16 04:12:53;;;;;;;1.60;1.50;;;;;;;30.58;29.61;101752.53;5008568;28;96843;-72
2023/06/16 04:15:21;;;;;;;1.60;1.48;;;;;;;30.58;29.94;101749.75;5008493;28;96613;-72
2023/06/16 04:17:48;;;;;;;1.85;1.70;;;;;;;30.58;29.81;101754.44;5008241;28;97440;-72
2023/06/16 04:20:15;;;;;;;1.70;1.60;;;;;;;30.58;29.76;101755.31;5008311;28;99445;-72
2023/06/16 04:22:42;;;;;;;1.92;1.83;;;;;;;30.59;29.76;101758.97;5004984;28;96830;-72
2023/06/16 04:25:09;;;;;;;1.63;1.52;;;;;;;30.58;29.81;101754.44;5001366;28;96814;-72
2023/06/16 04:27:37;;;;;;;2.03;1.70;;;;;;;30.58;29.93;101760.00;5007334;28;99607;-72
2023/06/16 04:30:06;;;;;;;1.85;1.70;;;;;;;30.58;29.94;101760.00;5007694;28;100241;-72
2023/06/16 04:32:35;;;;;;;2.00;1.70;;;;;;;30.58;29.99;101765.53;5008131;28;96815;-72
2023/06/16 04:35:06;;;;;;;2.00;1.80;;;;;;;30.57;29.81;101764.69;4991501;28;96866;-72
2023/06/16 04:37:33;;;;;;;1.75;1.45;;;;;;;30.58;29.92;101768.31;5007812;28;97043;-72
2023/06/16 04:40:02;;;;;;;1.83;1.65;;;;;;;30.56;29.66;101760.22;5007695;28;98700;-72
2023/06/16 04:42:32;;;;;;;1.83;1.70;;;;;;;30.57;29.82;101767.47;5010008;28;96924;-72
2023/06/16 04:44:58;;;;;;;1.67;1.58;;;;;;;30.56;29.88;101760.22;5007890;28;97896;-72
2023/06/16 04:47:25;;;;;;;2.20;2.00;;;;;;;30.56;29.84;101768.53;5007966;28;96779;-72
2023/06/16 04:49:52;;;;;;;1.73;1.63;;;;;;;30.56;29.82;101765.75;5008880;28;98082;-72
2023/06/16 04:52:18;;;;;;;1.95;1.75;;;;;;;30.56;29.75;101765.75;4997090;28;97140;-72
2023/06/16 04:54:46;;;;;;;2.08;1.70;;;;;;;30.57;29.78;101766.59;4988839;28;96834;-72
2023/06/16 04:57:13;;;;;;;1.63;1.52;;;;;;;30.56;29.86;101765.75;4990514;28;100054;-72
2023/06/16 04:59:39;;;;;;;2.47;1.90;;;;;;;30.58;29.93;101768.31;5009044;28;97405;-72
2023/06/16 05:02:06;;;;;;;2.03;1.73;;;;;;;30.58;29.81;101777.47;5007835;28;96669;-72
2023/06/16 05:04:33;;;;;;;1.75;1.60;;;;;;;30.58;29.81;101773.84;4994755;28;97107;-72
2023/06/16 05:07:00;;;;;;;2.38;1.70;;;;;;;30.57;29.91;101775.78;4991349;28;101075;-72
2023/06/16 05:09:27;;;;;;;1.95;1.63;;;;;;;30.58;29.91;101768.31;5007552;28;97899;-72
2023/06/16 05:11:54;;;;;;;2.03;1.67;;;;;;;30.56;29.70;101771.31;5007871;28;96917;-72
2023/06/16 05:14:22;;;;;;;2.00;1.80;;;;;;;30.57;29.92;101775.78;5007338;28;97152;-72
2023/06/16 05:16:49;;;;;;;2.63;1.73;;;;;;;30.58;29.77;101776.63;5007230;28;97912;-72
2023/06/16 05:19:17;;;;;;;1.75;1.65;;;;;;;30.58;29.88;101771.09;5007308;28;96998;-72
2023/06/16 05:21:53;;;;;;;2.40;1.67;;;;;;;30.57;30.08;101774.94;5007834;28;96821;-72
2023/06/16 05:24:20;;;;;;;1.58;1.48;;;;;;;30.57;29.88;101767.47;5007850;28;96723;-72
2023/06/16 05:26:48;;;;;;;1.77;1.60;;;;;;;30.58;29.79;101771.94;4998153;28;99462;-72
2023/06/16 05:29:15;;;;;;;1.63;1.52;;;;;;;30.58;30.02;101771.94;5014022;28;99104;-72
2023/06/16 05:31:42;;;;;;;1.85;1.67;;;;;;;30.58;29.83;101771.09;5013600;28;96669;-72
2023/06/16 05:34:09;;;;;;;2.15;1.60;;;;;;;30.58;30.08;101782.19;5010891;28;96758;-72
2023/06/16 05:36:36;;;;;;;1.65;1.50;;;;;;;30.58;30.02;101774.72;5009101;28;98535;-72
2023/06/16 05:39:07;;;;;;;1.85;1.45;;;;;;;30.58;29.91;101776.63;5009158;28;98903;-72
2023/06/16 05:41:35;;;;;;;1.88;1.70;;;;;;;30.58;29.87;101776.63;5008834;28;96916;-72
2023/06/16 05:44:02;;;;;;;2.10;1.85;;;;;;;30.58;29.97;101785.81;5007684;28;96942;-72
2023/06/16 05:46:29;;;;;;;1.60;1.50;;;;;;;30.58;29.81;101782.19;5007983;28;96754;-72
2023/06/16 05:48:57;;;;;;;1.70;1.60;;;;;;;30.58;29.76;101788.56;5007007;28;97061;-72
2023/06/16 05:51:25;;;;;;;1.92;1.40;;;;;;;30.58;29.91;101782.19;5007260;28;96892;-72
2023/06/16 05:53:53;;;;;;;2.30;1.70;;;;;;;30.58;29.77;101785.81;5006794;28;97040;-72
2023/06/16 05:56:22;;;;;;;2.97;1.80;;;;;;;30.59;29.89;101789.47;5005585;28;98153;-72
2023/06/16 05:58:48;;;;;;;1.73;1.60;;;;;;;30.59;29.86;101795.00;5006988;28;98129;-72
2023/06/16 06:01:15;;;;;;;2.03;1.60;;;;;;;30.59;29.70;101793.09;5007247;28;96704;-72
2023/06/16 06:03:46;;;;;;;1.70;1.60;;;;;;;30.58;29.79;101802.44;5006558;28;96940;-72
2023/06/16 06:06:16;;;;;;;1.70;1.50;;;;;;;30.58;29.89;101798.81;5005883;28;96639;-71
2023/06/16 06:08:44;;;;;;;1.58;1.48;;;;;;;30.58;29.89;101807.97;5006135;28;99133;-72
2023/06/16 06:11:12;;;;;;;1.67;1.48;;;;;;;30.58;29.79;101810.75;4984964;28;96795;-72
2023/06/16 06:13:39;;;;;;;1.67;1.58;;;;;;;30.58;30.04;101816.28;5006430;28;97358;-72
2023/06/16 06:16:06;;;;;;;1.58;1.48;;;;;;;30.58;29.98;101807.13;5005800;28;97528;-71
2023/06/16 06:18:33;;;;;;;2.10;1.48;;;;;;;30.58;29.96;101813.53;5006778;28;99221;-72
2023/06/16 06:21:00;;;;;;;1.77;1.65;;;;;;;30.59;30.03;101817.19;5005131;28;96757;-72
2023/06/16 06:23:28;;;;;;;1.50;1.40;;;;;;;30.59;29.89;101817.19;5007071;28;96860;-72
2023/06/16 06:25:54;;;;;;;1.45;1.35;;;;;;;30.59;29.85;101809.72;5006785;28;96803;-72
2023/06/16 06:28:25;;;;;;;1.60;1.40;;;;;;;30.59;29.89;101819.94;5005015;28;99144;-71
2023/06/16 06:30:53;;;;;;;1.40;1.30;;;;;;;30.59;30.03;101820.81;5005036;28;97340;-72
2023/06/16 06:33:21;;;;;;;1.55;1.45;;;;;;;30.58;29.97;101821.84;5005731;28;96992;-71
2023/06/16 06:35:48;;;;;;;2.38;1.80;;;;;;;30.59;29.96;101819.94;5005846;28;96720;-72
2023/06/16 06:38:15;;;;;;;2.00;1.60;;;;;;;30.59;29.93;101828.28;5002068;28;97569;-72
2023/06/16 06:40:42;;;;;;;1.88;1.40;;;;;;;30.58;30.08;101821.84;5005680;28;96711;-72
2023/06/16 06:43:11;;;;;;;1.70;1.60;;;;;;;30.58;30.07;101830.16;4989272;28;96643;-72
2023/06/16 06:46:00;;;;;;;1.55;1.40;;;;;;;30.59;30.00;101825.50;5000459;28;96923;-72
2023/06/16 06:48:28;;;;;;;1.85;1.65;;;;;;;30.59;29.96;101826.34;5007750;28;96943;-72
2023/06/16 06:50:58;;;;;;;2.53;1.70;;;;;;;30.59;30.11;101829.13;5005438;28;96763;-72
2023/06/16 06:53:25;;;;;;;2.03;1.70;;;;;;;30.59;29.89;101833.81;5007083;28;96901;-72
2023/06/16 06:55:51;;;;;;;1.67;1.50;;;;;;;30.60;30.00;101830.81;5004788;28;99955;-72
2023/06/16 06:58:18;;;;;;;1.67;1.58;;;;;;;30.60;29.93;101827.19;5007446;28;98198;-72
2023/06/16 07:00:44;;;;;;;2.25;1.80;;;;;;;30.60;30.04;101828.06;5005504;28;97122;-72
2023/06/16 07:03:12;;;;;;;2.15;1.67;;;;;;;30.60;30.18;101824.44;5007638;28;96697;-72
2023/06/16 07:05:39;;;;;;;1.65;1.50;;;;;;;30.60;30.00;101828.06;5005978;28;97158;-71
2023/06/16 07:08:05;;;;;;;2.08;1.88;;;;;;;30.60;30.05;101829.97;5006945;28;97371;-72
2023/06/16 07:10:32;;;;;;;1.80;1.63;;;;;;;30.60;29.92;101836.38;5007265;28;96698;-72
2023/06/16 07:12:59;;;;;;;1.90;1.70;;;;;;;30.60;29.87;101832.75;5007777;28;96881;-72
2023/06/16 07:15:26;;;;;;;2.70;1.48;;;;;;;30.60;30.11;101835.53;5005624;28;98544;-72
2023/06/16 07:17:52;;;;;;;1.70;1.60;;;;;;;30.61;30.12;101831.69;5005868;28;97584;-72
2023/06/16 07:20:19;;;;;;;1.65;1.52;;;;;;;30.61;29.92;101834.44;5006969;28;97412;-72
2023/06/16 07:22:47;;;;;;;1.75;1.65;;;;;;;30.61;29.88;101837.22;5007323;28;96905;-72
2023/06/16 07:25:15;;;;;;;1.98;1.70;;;;;;;30.61;30.15;101835.31;5007492;28;97392;-72
2023/06/16 07:27:43;;;;;;;1.98;1.60;;;;;;;30.61;30.01;101840.00;5006059;28;97765;-71
2023/06/16 07:30:10;;;;;;;2.20;1.80;;;;;;;30.62;29.92;101839.78;5005495;28;96834;-72
2023/06/16 07:32:39;;;;;;;2.92;1.88;;;;;;;30.60;29.88;101835.53;5006559;28;96876;-72
2023/06/16 07:35:08;;;;;;;2.03;1.83;;;;;;;30.60;29.99;101841.91;4999997;28;97947;-72
2023/06/16 07:37:34;;;;;;;2.20;1.90;;;;;;;30.62;29.93;101844.47;4997244;28;97212;-72
2023/06/16 07:40:01;;;;;;;2.20;2.00;;;;;;;30.61;29.87;101842.78;5004896;28;97187;-72
2023/06/16 07:42:45;;;;;;;1.92;1.70;;;;;;;30.61;30.15;101840.00;5005660;28;97033;-71
2023/06/16 07:45:12;;;;;;;2.17;1.70;;;;;;;30.61;29.92;101837.22;4992478;28;97323;-72
2023/06/16 07:47:42;;;;;;;2.65;2.00;;;;;;;30.62;29.86;101841.69;5005167;28;97816;-72
2023/06/16 07:50:12;;;;;;;2.25;2.00;;;;;;;30.61;29.92;101838.06;5007493;28;96523;-72
2023/06/16 07:52:38;;;;;;;2.00;1.80;;;;;;;30.62;29.93;101830.59;4976004;28;97994;-72
2023/06/16 07:55:06;;;;;;;2.28;1.95;;;;;;;30.61;29.87;101832.53;5006203;28;97473;-72
2023/06/16 07:57:33;;;;;;;1.75;1.63;;;;;;;30.61;29.64;101832.53;5005180;28;97279;-72
2023/06/16 08:00:00;;;;;;;3.13;1.88;;;;;;;30.61;29.88;101838.06;5007075;28;96776;-72
2023/06/16 08:02:26;;;;;;;1.95;1.63;;;;;;;30.62;29.82;101836.16;5006801;28;96906;-72
2023/06/16 08:04:53;;;;;;;2.65;1.80;;;;;;;30.63;29.85;101837.84;5005926;28;96991;-72
2023/06/16 08:07:19;;;;;;;2.15;1.80;;;;;;;30.62;29.87;101825.06;5006893;28;97333;-72
2023/06/16 08:09:46;;;;;;;2.38;1.83;;;;;;;30.62;29.74;101827.84;5006209;28;97032;-72
2023/06/16 08:12:13;;;;;;;2.17;1.80;;;;;;;30.63;29.81;101826.78;5007095;28;97017;-72
2023/06/16 08:14:39;;;;;;;1.90;1.70;;;;;;;30.62;29.81;101825.91;5006262;28;98384;-72
2023/06/16 08:17:06;;;;;;;2.40;2.00;;;;;;;30.62;29.79;101825.91;5006774;28;97823;-72
2023/06/16 08:19:32;;;;;;;1.70;1.60;;;;;;;30.62;29.73;101823.16;5006760;28;97145;-72
2023/06/16 08:22:00;;;;;;;2.45;1.70;;;;;;;30.62;29.81;101825.91;5007278;28;97293;-72
2023/06/16 08:24:26;;;;;;;2.13;1.90;;;;;;;30.62;29.77;101825.91;5006224;28;96646;-72
2023/06/16 08:26:53;;;;;;;2.17;1.77;;;;;;;30.63;29.79;101822.06;5005496;28;96621;-72
2023/06/16 08:29:20;;;;;;;2.72;2.00;;;;;;;30.63;29.87;101819.31;5005783;28;97020;-72
2023/06/16 08:31:48;;;;;;;2.22;1.73;;;;;;;30.62;29.85;101820.38;5003052;28;96925;-72
2023/06/16 08:34:14;;;;;;;2.55;1.67;;;;;;;30.62;29.75;101823.16;5005257;28;96727;-72
2023/06/16 08:36:41;;;;;;;2.22;2.03;;;;;;;30.64;29.70;101814.59;5006156;28;96617;-72
2023/06/16 08:39:09;;;;;;;2.00;1.80;;;;;;;30.64;29.67;101815.47;5004820;28;97224;-72
2023/06/16 08:41:36;;;;;;;2.10;1.90;;;;;;;30.63;29.85;101807.34;5004506;28;96771;-72
2023/06/16 08:44:06;;;;;;;2.20;1.90;;;;;;;30.63;29.59;101805.44;5005743;28;97418;-72
2023/06/16 08:46:33;;;;;;;2.00;1.80;;;;;;;30.64;29.71;101800.75;5004326;28;97460;-72
2023/06/16 08:49:00;;;;;;;2.22;2.00;;;;;;;30.63;29.61;101813.75;5001202;28;97375;-72
2023/06/16 08:51:27;;;;;;;1.73;1.63;;;;;;;30.64;29.62;101815.47;5009595;28;96941;-72
2023/06/16 08:54:00;;;;;;;1.65;1.42;;;;;;;30.65;29.84;101810.75;5008656;28;98114;-72
2023/06/16 08:56:31;;;;;;;2.13;1.92;;;;;;;30.64;29.84;101812.69;5008814;28;97368;-74
2023/06/16 08:59:03;;;;;;;3.17;1.83;;;;;;;30.65;29.46;101805.22;5006764;28;97347;-71
2023/06/16 09:01:30;;;;;;;1.77;1.67;;;;;;;30.64;29.79;101811.84;4996192;28;97362;-72
2023/06/16 09:03:57;;;;;;;2.72;1.65;;;;;;;30.64;29.64;101811.84;5007564;28;97007;-72
2023/06/16 09:06:25;;;;;;;2.13;1.92;;;;;;;30.64;29.74;101814.59;5008961;28;96933;-72
2023/06/16 09:08:54;;;;;;;2.03;1.70;;;;;;;30.64;29.79;101815.47;5007869;28;97056;-71
2023/06/16 09:11:24;;;;;;;2.35;2.08;;;;;;;30.65;29.61;101819.09;5006769;28;97235;-72
2023/06/16 09:13:55;;;;;;;2.00;1.63;;;;;;;30.64;29.62;101820.16;5007801;28;97787;-72
2023/06/16 09:16:23;;;;;;;2.17;1.92;;;;;;;30.64;29.64;101812.69;5007431;28;97294;-72
2023/06/16 09:18:50;;;;;;;2.03;1.83;;;;;;;30.66;29.74;101806.91;5013577;28;97136;-72
2023/06/16 09:21:24;;;;;;;2.65;1.77;;;;;;;30.65;29.76;101811.63;5009131;28;98138;-72
2023/06/16 09:23:57;;;;;;;2.00;1.80;;;;;;;30.65;29.59;101819.09;5008055;28;96899;-72
2023/06/16 09:26:29;;;;;;;2.08;1.60;;;;;;;30.64;29.96;101815.47;5007949;28;98051;-72
2023/06/16 09:28:57;;;;;;;1.98;1.77;;;;;;;30.64;29.48;101815.47;5007288;28;96859;-72
2023/06/16 09:31:27;;;;;;;1.83;1.70;;;;;;;30.65;29.46;101816.31;5008370;28;97394;-72
2023/06/16 09:34:03;;;;;;;2.08;1.88;;;;;;;30.65;29.66;101808.84;5006747;28;98714;-72
2023/06/16 09:36:30;;;;;;;2.58;2.05;;;;;;;30.65;29.44;101813.53;5007895;28;96913;-71
2023/06/16 09:38:57;;;;;;;2.20;1.80;;;;;;;30.65;29.74;101805.22;5007688;28;97098;-72
2023/06/16 09:41:24;;;;;;;2.10;1.83;;;;;;;30.66;29.63;101804.16;5009346;28;96743;-72
2023/06/16 09:43:51;;;;;;;1.73;1.60;;;;;;;30.65;29.47;101796.91;5007052;28;96907;-71
2023/06/16 09:46:18;;;;;;;2.20;1.90;;;;;;;30.66;29.61;101795.81;5007185;28;96785;-72
2023/06/16 09:48:50;;;;;;;2.03;1.60;;;;;;;30.65;29.48;101794.97;5008155;28;96707;-72
2023/06/16 09:51:18;;;;;;;1.65;1.55;;;;;;;30.66;29.69;101798.59;5007420;28;96831;-72
2023/06/16 09:53:46;;;;;;;2.15;1.80;;;;;;;30.65;29.29;101802.44;5008499;28;97230;-71
2023/06/16 09:56:14;;;;;;;1.98;1.50;;;;;;;30.66;29.61;101796.69;5005101;28;97303;-72
2023/06/16 09:58:42;;;;;;;3.10;2.00;;;;;;;30.66;29.59;101801.38;5009171;28;96665;-72
2023/06/16 10:01:11;;;;;;;2.72;1.83;;;;;;;30.65;29.67;101794.97;5008456;28;97287;-72
2023/06/16 10:03:39;;;;;;;2.00;1.80;;;;;;;30.65;29.64;101794.97;5007811;28;97106;-72
2023/06/16 10:06:18;;;;;;;2.25;2.00;;;;;;;30.66;29.58;101793.06;4996234;28;96940;-72
2023/06/16 10:08:47;;;;;;;1.98;1.80;;;;;;;30.65;29.45;101794.97;4989117;28;96917;-72
2023/06/16 10:11:19;;;;;;;2.50;1.90;;;;;;;30.65;29.55;101794.97;5004308;28;96913;-72
2023/06/16 10:13:51;;;;;;;1.88;1.67;;;;;;;30.66;29.39;101793.06;5006199;28;96789;-72
2023/06/16 10:16:21;;;;;;;2.40;2.00;;;;;;;30.66;29.39;101793.06;5007145;28;97468;-72
2023/06/16 10:18:49;;;;;;;2.28;1.80;;;;;;;30.65;29.58;101783.03;5008529;28;97362;-72
2023/06/16 10:21:16;;;;;;;1.70;1.60;;;;;;;30.65;29.66;101786.66;5010611;28;97078;-72
2023/06/16 10:23:43;;;;;;;2.00;1.80;;;;;;;30.65;29.59;101783.88;4989026;28;97010;-72
2023/06/16 10:26:12;;;;;;;1.73;1.63;;;;;;;30.66;29.53;101781.97;5006216;28;97433;-72
2023/06/16 10:28:40;;;;;;;2.03;1.75;;;;;;;30.66;29.56;101777.28;5006716;28;96771;-72
2023/06/16 10:31:09;;;;;;;2.38;1.80;;;;;;;30.66;29.70;101777.28;5006718;28;96883;-72
2023/06/16 10:33:57;;;;;;;2.28;1.77;;;;;;;30.66;29.40;101779.19;5005604;28;97446;-72
2023/06/16 10:36:28;;;;;;;2.00;1.80;;;;;;;30.65;29.45;101769.16;5007422;28;97955;-71
2023/06/16 10:39:01;;;;;;;2.15;1.95;;;;;;;30.65;29.28;101772.78;5005609;28;96774;-72
2023/06/16 10:41:31;;;;;;;2.42;1.63;;;;;;;30.65;29.26;101771.94;5007411;28;97029;-72
2023/06/16 10:44:32;;;;;;;1.80;1.70;;;;;;;30.65;29.56;101758.94;5007349;28;96607;-71
2023/06/16 10:47:05;;;;;;;3.35;1.90;;;;;;;30.64;29.69;101765.56;5002977;28;96776;-72
2023/06/16 10:49:32;;;;;;;1.85;1.65;;;;;;;30.63;29.41;101761.06;4993329;28;96803;-72
2023/06/16 10:52:01;;;;;;;1.90;1.70;;;;;;;30.64;29.43;101764.69;5007417;28;98610;-72
2023/06/16 10:54:33;;;;;;;1.90;1.70;;;;;;;30.65;29.41;101763.63;5006415;28;97706;-72
2023/06/16 10:57:03;;;;;;;2.38;1.63;;;;;;;30.64;29.52;101765.56;5007958;28;97388;-72
2023/06/16 10:59:55;;;;;;;2.20;1.90;;;;;;;30.65;29.39;101761.69;5003435;28;97405;-72
2023/06/16 11:02:24;;;;;;;2.20;1.90;;;;;;;30.64;29.45;101759.16;5004810;28;97012;-72
2023/06/16 11:05:22;;;;;;;2.00;1.80;;;;;;;30.64;29.52;101746.13;5004863;28;98206;-71
2023/06/16 11:08:02;;;;;;;1.88;1.75;;;;;;;30.64;29.41;101748.91;4990974;28;97767;-72
2023/06/16 11:10:29;;;;;;;1.70;1.60;;;;;;;30.63;29.52;101749.13;5007588;28;97365;-71
2023/06/16 11:12:56;;;;;;;2.05;1.85;;;;;;;30.64;29.39;101739.75;5004121;28;97136;-72
2023/06/16 11:15:23;;;;;;;2.00;1.80;;;;;;;30.64;29.39;101737.81;5004329;28;97239;-72
2023/06/16 11:17:51;;;;;;;2.50;1.80;;;;;;;30.65;29.26;101749.75;5003901;28;96763;-72
2023/06/16 11:20:18;;;;;;;1.60;1.50;;;;;;;30.65;29.53;101747.00;5006435;28;97157;-72
2023/06/16 11:22:45;;;;;;;2.47;1.80;;;;;;;30.66;29.52;101740.38;5006750;28;97137;-72
2023/06/16 11:25:12;;;;;;;2.10;1.90;;;;;;;30.66;29.53;101740.38;5002917;28;98920;-72
2023/06/16 11:27:39;;;;;;;2.00;1.75;;;;;;;30.65;29.59;101735.91;5006787;28;97116;-71
2023/06/16 11:30:07;;;;;;;2.10;1.90;;;;;;;30.65;29.52;101731.19;5004905;28;96841;-72
2023/06/16 11:32:36;;;;;;;2.15;1.90;;;;;;;30.66;29.53;101748.69;5006922;28;96640;-72